sensor_id;sensor_type;location;lat;lon;timestamp;P1;durP1;ratioP1;P2;durP2;ratioP2
84820;SDS011;75463;50.988;11.332;2024-01-11T00:02:19;62.63;;;35.70;;
84820;SDS011;75463;50.988;11.332;2024-01-11T00:04:44;64.77;;;31.60;;
84820;SDS011;75463;50.988;11.332;2024-01-11T00:07:10;74.20;;;39.08;;
84820;SDS011;75463;50.988;11.332;2024-01-11T00:09:41;68.07;;;35.58;;
84820;SDS011;75463;50.988;11.332;2024-01-11T00:12:07;73.50;;;36.88;;
84820;SDS011;75463;50.988;11.332;2024-01-11T00:14:33;61.25;;;32.55;;
84820;SDS011;75463;50.988;11.332;2024-01-11T00:16:59;48.55;;;29.80;;
84820;SDS011;75463;50.988;11.332;2024-01-11T00:19:24;47.50;;;26.63;;
84820;SDS011;75463;50.988;11.332;2024-01-11T00:21:49;67.57;;;34.22;;
84820;SDS011;75463;50.988;11.332;2024-01-11T00:24:15;72.25;;;37.63;;
84820;SDS011;75463;50.988;11.332;2024-01-11T00:26:40;60.35;;;32.80;;
84820;SDS011;75463;50.988;11.332;2024-01-11T00:29:06;62.67;;;31.08;;
84820;SDS011;75463;50.988;11.332;2024-01-11T00:31:32;68.00;;;36.83;;
84820;SDS011;75463;50.988;11.332;2024-01-11T00:33:57;68.47;;;28.30;;
84820;SDS011;75463;50.988;11.332;2024-01-11T00:36:22;72.95;;;35.75;;
84820;SDS011;75463;50.988;11.332;2024-01-11T00:38:48;65.13;;;32.72;;
84820;SDS011;75463;50.988;11.332;2024-01-11T00:41:14;61.08;;;34.75;;
84820;SDS011;75463;50.988;11.332;2024-01-11T00:43:39;50.58;;;30.92;;
84820;SDS011;75463;50.988;11.332;2024-01-11T00:46:04;48.10;;;23.92;;
84820;SDS011;75463;50.988;11.332;2024-01-11T00:48:30;67.00;;;32.53;;
84820;SDS011;75463;50.988;11.332;2024-01-11T00:50:55;62.33;;;31.17;;
84820;SDS011;75463;50.988;11.332;2024-01-11T00:53:20;56.17;;;25.40;;
84820;SDS011;75463;50.988;11.332;2024-01-11T00:55:45;46.47;;;23.20;;
84820;SDS011;75463;50.988;11.332;2024-01-11T00:58:11;49.63;;;27.37;;
84820;SDS011;75463;50.988;11.332;2024-01-11T01:00:36;52.38;;;29.58;;
84820;SDS011;75463;50.988;11.332;2024-01-11T01:03:01;62.90;;;33.17;;
84820;SDS011;75463;50.988;11.332;2024-01-11T01:05:27;62.65;;;29.92;;
84820;SDS011;75463;50.988;11.332;2024-01-11T01:07:52;60.22;;;30.33;;
84820;SDS011;75463;50.988;11.332;2024-01-11T01:10:18;68.45;;;31.30;;
84820;SDS011;75463;50.988;11.332;2024-01-11T01:12:43;59.10;;;29.65;;
84820;SDS011;75463;50.988;11.332;2024-01-11T01:15:08;45.72;;;28.13;;
84820;SDS011;75463;50.988;11.332;2024-01-11T01:17:34;68.57;;;35.80;;
84820;SDS011;75463;50.988;11.332;2024-01-11T01:19:59;60.50;;;35.72;;
84820;SDS011;75463;50.988;11.332;2024-01-11T01:22:24;71.05;;;34.20;;
84820;SDS011;75463;50.988;11.332;2024-01-11T01:24:50;50.80;;;24.15;;
84820;SDS011;75463;50.988;11.332;2024-01-11T01:27:16;53.25;;;26.75;;
84820;SDS011;75463;50.988;11.332;2024-01-11T01:29:41;47.47;;;24.52;;
84820;SDS011;75463;50.988;11.332;2024-01-11T01:32:07;54.85;;;28.58;;
84820;SDS011;75463;50.988;11.332;2024-01-11T01:34:32;59.65;;;31.27;;
84820;SDS011;75463;50.988;11.332;2024-01-11T01:36:57;67.93;;;36.90;;
84820;SDS011;75463;50.988;11.332;2024-01-11T01:39:22;56.15;;;32.00;;
84820;SDS011;75463;50.988;11.332;2024-01-11T01:41:48;49.83;;;26.35;;
84820;SDS011;75463;50.988;11.332;2024-01-11T01:44:13;49.38;;;27.50;;
84820;SDS011;75463;50.988;11.332;2024-01-11T01:46:38;41.33;;;23.27;;
84820;SDS011;75463;50.988;11.332;2024-01-11T01:49:04;56.65;;;25.50;;
84820;SDS011;75463;50.988;11.332;2024-01-11T01:51:30;46.67;;;26.67;;
84820;SDS011;75463;50.988;11.332;2024-01-11T01:53:57;46.75;;;24.98;;
84820;SDS011;75463;50.988;11.332;2024-01-11T01:56:23;56.40;;;28.45;;
84820;SDS011;75463;50.988;11.332;2024-01-11T01:58:50;51.20;;;27.65;;
84820;SDS011;75463;50.988;11.332;2024-01-11T02:01:18;49.92;;;27.20;;
84820;SDS011;75463;50.988;11.332;2024-01-11T02:03:45;53.47;;;29.52;;
84820;SDS011;75463;50.988;11.332;2024-01-11T02:08:40;39.67;;;24.55;;
84820;SDS011;75463;50.988;11.332;2024-01-11T02:11:07;38.45;;;19.90;;
84820;SDS011;75463;50.988;11.332;2024-01-11T02:13:33;47.58;;;27.13;;
84820;SDS011;75463;50.988;11.332;2024-01-11T02:15:58;44.00;;;24.25;;
84820;SDS011;75463;50.988;11.332;2024-01-11T02:18:24;40.65;;;24.15;;
84820;SDS011;75463;50.988;11.332;2024-01-11T02:20:49;50.25;;;30.63;;
84820;SDS011;75463;50.988;11.332;2024-01-11T02:23:17;46.55;;;27.38;;
84820;SDS011;75463;50.988;11.332;2024-01-11T02:25:44;58.47;;;32.95;;
84820;SDS011;75463;50.988;11.332;2024-01-11T02:28:10;50.22;;;27.13;;
84820;SDS011;75463;50.988;11.332;2024-01-11T02:30:36;50.55;;;25.27;;
84820;SDS011;75463;50.988;11.332;2024-01-11T02:33:02;55.17;;;26.55;;
84820;SDS011;75463;50.988;11.332;2024-01-11T02:35:28;59.75;;;31.05;;
84820;SDS011;75463;50.988;11.332;2024-01-11T02:37:54;59.13;;;29.77;;
84820;SDS011;75463;50.988;11.332;2024-01-11T02:40:20;47.60;;;25.80;;
84820;SDS011;75463;50.988;11.332;2024-01-11T02:42:46;50.88;;;26.42;;
84820;SDS011;75463;50.988;11.332;2024-01-11T02:45:12;48.67;;;24.83;;
84820;SDS011;75463;50.988;11.332;2024-01-11T02:47:37;48.60;;;25.73;;
84820;SDS011;75463;50.988;11.332;2024-01-11T02:50:03;57.22;;;28.77;;
84820;SDS011;75463;50.988;11.332;2024-01-11T02:52:29;52.90;;;26.60;;
84820;SDS011;75463;50.988;11.332;2024-01-11T02:54:55;49.85;;;26.45;;
84820;SDS011;75463;50.988;11.332;2024-01-11T02:57:20;54.03;;;27.50;;
84820;SDS011;75463;50.988;11.332;2024-01-11T02:59:45;43.63;;;25.70;;
84820;SDS011;75463;50.988;11.332;2024-01-11T03:02:10;41.17;;;23.40;;
84820;SDS011;75463;50.988;11.332;2024-01-11T03:04:36;46.25;;;25.70;;
84820;SDS011;75463;50.988;11.332;2024-01-11T03:07:01;48.93;;;27.87;;
84820;SDS011;75463;50.988;11.332;2024-01-11T03:09:26;59.05;;;28.85;;
84820;SDS011;75463;50.988;11.332;2024-01-11T03:11:52;41.35;;;27.30;;
84820;SDS011;75463;50.988;11.332;2024-01-11T03:14:17;50.75;;;23.65;;
84820;SDS011;75463;50.988;11.332;2024-01-11T03:16:43;39.53;;;20.45;;
84820;SDS011;75463;50.988;11.332;2024-01-11T03:19:08;47.30;;;24.60;;
84820;SDS011;75463;50.988;11.332;2024-01-11T03:21:33;43.10;;;24.27;;
84820;SDS011;75463;50.988;11.332;2024-01-11T03:23:59;45.85;;;26.13;;
84820;SDS011;75463;50.988;11.332;2024-01-11T03:26:25;48.47;;;27.45;;
84820;SDS011;75463;50.988;11.332;2024-01-11T03:28:50;51.55;;;27.13;;
84820;SDS011;75463;50.988;11.332;2024-01-11T03:31:15;49.58;;;27.20;;
84820;SDS011;75463;50.988;11.332;2024-01-11T03:33:40;52.80;;;25.85;;
84820;SDS011;75463;50.988;11.332;2024-01-11T03:36:09;62.05;;;31.73;;
84820;SDS011;75463;50.988;11.332;2024-01-11T03:38:35;43.35;;;26.00;;
84820;SDS011;75463;50.988;11.332;2024-01-11T03:41:01;50.92;;;23.65;;
84820;SDS011;75463;50.988;11.332;2024-01-11T03:43:27;58.15;;;29.73;;
84820;SDS011;75463;50.988;11.332;2024-01-11T03:45:53;62.90;;;28.30;;
84820;SDS011;75463;50.988;11.332;2024-01-11T03:48:18;47.08;;;27.80;;
84820;SDS011;75463;50.988;11.332;2024-01-11T03:50:44;48.78;;;25.20;;
84820;SDS011;75463;50.988;11.332;2024-01-11T03:53:09;49.78;;;27.58;;
84820;SDS011;75463;50.988;11.332;2024-01-11T03:55:35;40.25;;;21.58;;
84820;SDS011;75463;50.988;11.332;2024-01-11T03:58:00;49.42;;;25.75;;
84820;SDS011;75463;50.988;11.332;2024-01-11T04:00:25;50.35;;;24.63;;
84820;SDS011;75463;50.988;11.332;2024-01-11T04:02:50;39.45;;;22.23;;
84820;SDS011;75463;50.988;11.332;2024-01-11T04:05:16;48.03;;;22.97;;
84820;SDS011;75463;50.988;11.332;2024-01-11T04:07:41;45.45;;;20.63;;
84820;SDS011;75463;50.988;11.332;2024-01-11T04:10:07;57.65;;;28.33;;
84820;SDS011;75463;50.988;11.332;2024-01-11T04:12:35;43.75;;;24.38;;
84820;SDS011;75463;50.988;11.332;2024-01-11T04:15:01;44.42;;;25.63;;
84820;SDS011;75463;50.988;11.332;2024-01-11T04:17:26;37.95;;;21.85;;
84820;SDS011;75463;50.988;11.332;2024-01-11T04:19:51;42.60;;;26.20;;
84820;SDS011;75463;50.988;11.332;2024-01-11T04:22:17;43.55;;;25.67;;
84820;SDS011;75463;50.988;11.332;2024-01-11T04:24:42;47.05;;;26.15;;
84820;SDS011;75463;50.988;11.332;2024-01-11T04:27:08;36.83;;;20.23;;
84820;SDS011;75463;50.988;11.332;2024-01-11T04:29:33;51.88;;;23.50;;
84820;SDS011;75463;50.988;11.332;2024-01-11T04:31:58;57.67;;;29.65;;
84820;SDS011;75463;50.988;11.332;2024-01-11T04:34:24;48.05;;;23.15;;
84820;SDS011;75463;50.988;11.332;2024-01-11T04:36:49;57.85;;;30.80;;
84820;SDS011;75463;50.988;11.332;2024-01-11T04:39:14;52.65;;;26.40;;
84820;SDS011;75463;50.988;11.332;2024-01-11T04:41:40;42.25;;;26.83;;
84820;SDS011;75463;50.988;11.332;2024-01-11T04:44:05;41.22;;;25.50;;
84820;SDS011;75463;50.988;11.332;2024-01-11T04:46:31;46.03;;;25.92;;
84820;SDS011;75463;50.988;11.332;2024-01-11T04:48:56;44.60;;;22.55;;
84820;SDS011;75463;50.988;11.332;2024-01-11T04:51:21;46.47;;;25.55;;
84820;SDS011;75463;50.988;11.332;2024-01-11T04:53:47;41.88;;;21.25;;
84820;SDS011;75463;50.988;11.332;2024-01-11T04:56:16;38.13;;;24.02;;
84820;SDS011;75463;50.988;11.332;2024-01-11T04:58:42;44.58;;;26.73;;
84820;SDS011;75463;50.988;11.332;2024-01-11T05:01:15;36.95;;;20.38;;
84820;SDS011;75463;50.988;11.332;2024-01-11T05:03:41;31.90;;;18.33;;
84820;SDS011;75463;50.988;11.332;2024-01-11T05:06:07;35.78;;;20.10;;
84820;SDS011;75463;50.988;11.332;2024-01-11T05:08:33;51.42;;;27.48;;
84820;SDS011;75463;50.988;11.332;2024-01-11T05:10:58;29.00;;;17.95;;
84820;SDS011;75463;50.988;11.332;2024-01-11T05:13:23;46.45;;;26.48;;
84820;SDS011;75463;50.988;11.332;2024-01-11T05:15:49;46.10;;;25.70;;
84820;SDS011;75463;50.988;11.332;2024-01-11T05:18:14;37.30;;;19.42;;
84820;SDS011;75463;50.988;11.332;2024-01-11T05:20:40;38.85;;;19.38;;
84820;SDS011;75463;50.988;11.332;2024-01-11T05:23:05;35.35;;;20.65;;
84820;SDS011;75463;50.988;11.332;2024-01-11T05:25:30;33.20;;;19.50;;
84820;SDS011;75463;50.988;11.332;2024-01-11T05:27:58;47.50;;;26.92;;
84820;SDS011;75463;50.988;11.332;2024-01-11T05:30:28;48.78;;;27.02;;
84820;SDS011;75463;50.988;11.332;2024-01-11T05:32:53;39.10;;;20.35;;
84820;SDS011;75463;50.988;11.332;2024-01-11T05:35:19;47.30;;;27.02;;
84820;SDS011;75463;50.988;11.332;2024-01-11T05:37:45;45.88;;;25.10;;
84820;SDS011;75463;50.988;11.332;2024-01-11T05:40:10;61.78;;;28.73;;
84820;SDS011;75463;50.988;11.332;2024-01-11T05:42:36;61.10;;;30.85;;
84820;SDS011;75463;50.988;11.332;2024-01-11T05:45:02;55.95;;;24.90;;
84820;SDS011;75463;50.988;11.332;2024-01-11T05:47:31;57.38;;;25.20;;
84820;SDS011;75463;50.988;11.332;2024-01-11T05:49:56;67.03;;;28.70;;
84820;SDS011;75463;50.988;11.332;2024-01-11T05:52:21;59.63;;;28.42;;
84820;SDS011;75463;50.988;11.332;2024-01-11T05:54:47;49.42;;;28.58;;
84820;SDS011;75463;50.988;11.332;2024-01-11T05:57:12;54.97;;;30.40;;
84820;SDS011;75463;50.988;11.332;2024-01-11T05:59:37;45.88;;;26.58;;
84820;SDS011;75463;50.988;11.332;2024-01-11T06:02:08;42.53;;;24.55;;
84820;SDS011;75463;50.988;11.332;2024-01-11T06:04:33;48.37;;;23.27;;
84820;SDS011;75463;50.988;11.332;2024-01-11T06:06:59;49.47;;;24.75;;
84820;SDS011;75463;50.988;11.332;2024-01-11T06:09:24;48.65;;;26.42;;
84820;SDS011;75463;50.988;11.332;2024-01-11T06:11:49;53.83;;;29.80;;
84820;SDS011;75463;50.988;11.332;2024-01-11T06:14:15;52.28;;;31.55;;
84820;SDS011;75463;50.988;11.332;2024-01-11T06:16:40;42.42;;;25.92;;
84820;SDS011;75463;50.988;11.332;2024-01-11T06:19:05;52.20;;;28.27;;
84820;SDS011;75463;50.988;11.332;2024-01-11T06:21:32;41.75;;;23.00;;
84820;SDS011;75463;50.988;11.332;2024-01-11T06:23:58;52.28;;;25.83;;
84820;SDS011;75463;50.988;11.332;2024-01-11T06:26:23;43.67;;;21.40;;
84820;SDS011;75463;50.988;11.332;2024-01-11T06:28:48;42.53;;;24.05;;
84820;SDS011;75463;50.988;11.332;2024-01-11T06:31:14;43.42;;;19.75;;
84820;SDS011;75463;50.988;11.332;2024-01-11T06:33:39;34.33;;;20.13;;
84820;SDS011;75463;50.988;11.332;2024-01-11T06:36:06;46.38;;;24.13;;
84820;SDS011;75463;50.988;11.332;2024-01-11T06:38:34;48.22;;;24.75;;
84820;SDS011;75463;50.988;11.332;2024-01-11T06:41:00;56.35;;;27.52;;
84820;SDS011;75463;50.988;11.332;2024-01-11T06:43:25;62.53;;;29.10;;
84820;SDS011;75463;50.988;11.332;2024-01-11T06:45:51;47.38;;;25.27;;
84820;SDS011;75463;50.988;11.332;2024-01-11T06:48:17;58.28;;;32.08;;
84820;SDS011;75463;50.988;11.332;2024-01-11T06:50:42;56.60;;;30.45;;
84820;SDS011;75463;50.988;11.332;2024-01-11T06:53:07;65.07;;;36.38;;
84820;SDS011;75463;50.988;11.332;2024-01-11T06:55:33;64.80;;;29.83;;
84820;SDS011;75463;50.988;11.332;2024-01-11T06:57:58;40.35;;;25.80;;
84820;SDS011;75463;50.988;11.332;2024-01-11T07:00:24;46.88;;;26.13;;
84820;SDS011;75463;50.988;11.332;2024-01-11T07:02:49;44.15;;;23.83;;
84820;SDS011;75463;50.988;11.332;2024-01-11T07:05:15;49.92;;;25.90;;
84820;SDS011;75463;50.988;11.332;2024-01-11T07:07:40;49.85;;;26.13;;
84820;SDS011;75463;50.988;11.332;2024-01-11T07:10:06;53.45;;;28.17;;
84820;SDS011;75463;50.988;11.332;2024-01-11T07:12:31;54.50;;;28.33;;
84820;SDS011;75463;50.988;11.332;2024-01-11T07:14:58;49.28;;;26.92;;
84820;SDS011;75463;50.988;11.332;2024-01-11T07:17:23;53.85;;;25.48;;
84820;SDS011;75463;50.988;11.332;2024-01-11T07:19:48;39.25;;;23.15;;
84820;SDS011;75463;50.988;11.332;2024-01-11T07:22:14;51.90;;;29.65;;
84820;SDS011;75463;50.988;11.332;2024-01-11T07:24:39;58.53;;;31.05;;
84820;SDS011;75463;50.988;11.332;2024-01-11T07:27:05;55.22;;;25.83;;
84820;SDS011;75463;50.988;11.332;2024-01-11T07:29:31;60.38;;;32.78;;
84820;SDS011;75463;50.988;11.332;2024-01-11T07:31:57;51.00;;;30.63;;
84820;SDS011;75463;50.988;11.332;2024-01-11T07:34:23;53.45;;;27.25;;
84820;SDS011;75463;50.988;11.332;2024-01-11T07:36:49;53.38;;;28.88;;
84820;SDS011;75463;50.988;11.332;2024-01-11T07:39:15;70.85;;;37.72;;
84820;SDS011;75463;50.988;11.332;2024-01-11T07:41:40;59.33;;;31.77;;
84820;SDS011;75463;50.988;11.332;2024-01-11T07:44:06;57.67;;;29.98;;
84820;SDS011;75463;50.988;11.332;2024-01-11T07:46:31;55.83;;;32.92;;
84820;SDS011;75463;50.988;11.332;2024-01-11T07:48:56;58.22;;;31.17;;
84820;SDS011;75463;50.988;11.332;2024-01-11T07:51:24;48.97;;;29.73;;
84820;SDS011;75463;50.988;11.332;2024-01-11T07:53:49;65.32;;;33.20;;
84820;SDS011;75463;50.988;11.332;2024-01-11T07:56:14;56.15;;;28.48;;
84820;SDS011;75463;50.988;11.332;2024-01-11T07:58:40;54.80;;;29.42;;
84820;SDS011;75463;50.988;11.332;2024-01-11T08:01:07;74.60;;;30.95;;
84820;SDS011;75463;50.988;11.332;2024-01-11T08:03:34;68.43;;;31.23;;
84820;SDS011;75463;50.988;11.332;2024-01-11T08:06:00;61.08;;;31.85;;
84820;SDS011;75463;50.988;11.332;2024-01-11T08:08:25;60.75;;;33.55;;
84820;SDS011;75463;50.988;11.332;2024-01-11T08:10:51;60.72;;;30.40;;
84820;SDS011;75463;50.988;11.332;2024-01-11T08:13:16;62.33;;;30.42;;
84820;SDS011;75463;50.988;11.332;2024-01-11T08:15:42;54.20;;;28.33;;
84820;SDS011;75463;50.988;11.332;2024-01-11T08:18:08;62.03;;;30.48;;
84820;SDS011;75463;50.988;11.332;2024-01-11T08:20:34;52.05;;;30.98;;
84820;SDS011;75463;50.988;11.332;2024-01-11T08:22:59;48.90;;;29.85;;
84820;SDS011;75463;50.988;11.332;2024-01-11T08:25:25;66.65;;;32.33;;
84820;SDS011;75463;50.988;11.332;2024-01-11T08:27:50;59.88;;;30.70;;
84820;SDS011;75463;50.988;11.332;2024-01-11T08:30:15;62.45;;;30.67;;
84820;SDS011;75463;50.988;11.332;2024-01-11T08:32:41;58.35;;;31.70;;
84820;SDS011;75463;50.988;11.332;2024-01-11T08:35:08;49.58;;;29.77;;
84820;SDS011;75463;50.988;11.332;2024-01-11T08:37:35;67.78;;;35.22;;
84820;SDS011;75463;50.988;11.332;2024-01-11T08:40:01;59.22;;;29.25;;
84820;SDS011;75463;50.988;11.332;2024-01-11T08:42:29;69.45;;;31.83;;
84820;SDS011;75463;50.988;11.332;2024-01-11T08:44:55;62.38;;;31.23;;
84820;SDS011;75463;50.988;11.332;2024-01-11T08:47:20;62.72;;;30.67;;
84820;SDS011;75463;50.988;11.332;2024-01-11T08:49:46;60.92;;;30.70;;
84820;SDS011;75463;50.988;11.332;2024-01-11T08:52:11;62.95;;;29.65;;
84820;SDS011;75463;50.988;11.332;2024-01-11T08:54:37;56.33;;;30.17;;
84820;SDS011;75463;50.988;11.332;2024-01-11T08:57:02;52.85;;;30.70;;
84820;SDS011;75463;50.988;11.332;2024-01-11T08:59:28;67.00;;;34.90;;
84820;SDS011;75463;50.988;11.332;2024-01-11T09:01:53;63.95;;;33.35;;
84820;SDS011;75463;50.988;11.332;2024-01-11T09:04:19;73.32;;;34.70;;
84820;SDS011;75463;50.988;11.332;2024-01-11T09:06:44;65.28;;;34.70;;
84820;SDS011;75463;50.988;11.332;2024-01-11T09:09:10;63.10;;;32.10;;
84820;SDS011;75463;50.988;11.332;2024-01-11T09:11:38;65.82;;;32.47;;
84820;SDS011;75463;50.988;11.332;2024-01-11T09:14:04;58.50;;;29.42;;
84820;SDS011;75463;50.988;11.332;2024-01-11T09:16:30;67.63;;;33.05;;
84820;SDS011;75463;50.988;11.332;2024-01-11T09:18:56;67.45;;;34.63;;
84820;SDS011;75463;50.988;11.332;2024-01-11T09:21:21;72.40;;;35.10;;
84820;SDS011;75463;50.988;11.332;2024-01-11T09:23:47;70.13;;;34.40;;
84820;SDS011;75463;50.988;11.332;2024-01-11T09:26:12;64.15;;;34.33;;
84820;SDS011;75463;50.988;11.332;2024-01-11T09:28:38;67.90;;;34.17;;
84820;SDS011;75463;50.988;11.332;2024-01-11T09:31:03;66.05;;;35.67;;
84820;SDS011;75463;50.988;11.332;2024-01-11T09:33:28;73.22;;;36.08;;
84820;SDS011;75463;50.988;11.332;2024-01-11T09:35:54;68.25;;;33.38;;
84820;SDS011;75463;50.988;11.332;2024-01-11T09:38:21;64.43;;;33.10;;
84820;SDS011;75463;50.988;11.332;2024-01-11T09:40:48;76.03;;;35.88;;
84820;SDS011;75463;50.988;11.332;2024-01-11T09:43:25;62.80;;;33.63;;
84820;SDS011;75463;50.988;11.332;2024-01-11T09:45:51;64.93;;;32.80;;
84820;SDS011;75463;50.988;11.332;2024-01-11T09:48:18;69.40;;;35.63;;
84820;SDS011;75463;50.988;11.332;2024-01-11T09:50:45;61.80;;;32.13;;
84820;SDS011;75463;50.988;11.332;2024-01-11T09:53:12;66.28;;;33.53;;
84820;SDS011;75463;50.988;11.332;2024-01-11T09:55:38;61.05;;;32.92;;
84820;SDS011;75463;50.988;11.332;2024-01-11T09:58:03;65.93;;;34.20;;
84820;SDS011;75463;50.988;11.332;2024-01-11T10:00:30;63.13;;;32.97;;
84820;SDS011;75463;50.988;11.332;2024-01-11T10:02:55;66.15;;;35.03;;
84820;SDS011;75463;50.988;11.332;2024-01-11T10:05:21;66.95;;;37.15;;
84820;SDS011;75463;50.988;11.332;2024-01-11T10:07:47;65.05;;;34.22;;
84820;SDS011;75463;50.988;11.332;2024-01-11T10:10:12;68.07;;;33.00;;
84820;SDS011;75463;50.988;11.332;2024-01-11T10:12:40;66.00;;;35.10;;
84820;SDS011;75463;50.988;11.332;2024-01-11T10:15:06;63.67;;;34.78;;
84820;SDS011;75463;50.988;11.332;2024-01-11T10:17:36;74.05;;;36.53;;
84820;SDS011;75463;50.988;11.332;2024-01-11T10:20:13;67.97;;;37.05;;
84820;SDS011;75463;50.988;11.332;2024-01-11T10:22:40;63.20;;;34.90;;
84820;SDS011;75463;50.988;11.332;2024-01-11T10:25:09;70.18;;;34.70;;
84820;SDS011;75463;50.988;11.332;2024-01-11T10:27:37;68.32;;;33.00;;
84820;SDS011;75463;50.988;11.332;2024-01-11T10:30:03;69.38;;;36.45;;
84820;SDS011;75463;50.988;11.332;2024-01-11T10:32:29;63.60;;;35.65;;
84820;SDS011;75463;50.988;11.332;2024-01-11T10:34:54;69.07;;;37.63;;
84820;SDS011;75463;50.988;11.332;2024-01-11T10:37:21;80.47;;;39.92;;
84820;SDS011;75463;50.988;11.332;2024-01-11T10:39:48;69.80;;;37.97;;
84820;SDS011;75463;50.988;11.332;2024-01-11T10:42:15;69.53;;;35.35;;
84820;SDS011;75463;50.988;11.332;2024-01-11T10:44:49;67.43;;;35.45;;
84820;SDS011;75463;50.988;11.332;2024-01-11T10:47:18;74.00;;;38.28;;
84820;SDS011;75463;50.988;11.332;2024-01-11T10:49:44;67.22;;;37.08;;
84820;SDS011;75463;50.988;11.332;2024-01-11T10:52:14;65.38;;;36.00;;
84820;SDS011;75463;50.988;11.332;2024-01-11T10:54:41;63.25;;;34.33;;
84820;SDS011;75463;50.988;11.332;2024-01-11T10:57:07;61.28;;;36.03;;
84820;SDS011;75463;50.988;11.332;2024-01-11T10:59:34;68.88;;;37.28;;
84820;SDS011;75463;50.988;11.332;2024-01-11T11:02:04;62.13;;;35.00;;
84820;SDS011;75463;50.988;11.332;2024-01-11T11:04:31;70.68;;;36.22;;
84820;SDS011;75463;50.988;11.332;2024-01-11T11:06:59;59.92;;;32.08;;
84820;SDS011;75463;50.988;11.332;2024-01-11T11:09:27;54.67;;;30.50;;
84820;SDS011;75463;50.988;11.332;2024-01-11T11:14:24;56.05;;;30.05;;
84820;SDS011;75463;50.988;11.332;2024-01-11T11:16:50;55.38;;;28.85;;
84820;SDS011;75463;50.988;11.332;2024-01-11T11:19:17;54.55;;;28.55;;
84820;SDS011;75463;50.988;11.332;2024-01-11T11:21:45;61.60;;;29.52;;
84820;SDS011;75463;50.988;11.332;2024-01-11T11:24:10;55.45;;;30.13;;
84820;SDS011;75463;50.988;11.332;2024-01-11T11:26:37;56.15;;;27.40;;
84820;SDS011;75463;50.988;11.332;2024-01-11T11:29:03;53.60;;;29.15;;
84820;SDS011;75463;50.988;11.332;2024-01-11T11:31:41;55.92;;;27.58;;
84820;SDS011;75463;50.988;11.332;2024-01-11T11:34:14;50.08;;;29.60;;
84820;SDS011;75463;50.988;11.332;2024-01-11T11:36:39;65.68;;;31.23;;
84820;SDS011;75463;50.988;11.332;2024-01-11T11:39:09;60.88;;;29.65;;
84820;SDS011;75463;50.988;11.332;2024-01-11T11:41:36;57.58;;;31.27;;
84820;SDS011;75463;50.988;11.332;2024-01-11T11:44:03;55.13;;;31.17;;
84820;SDS011;75463;50.988;11.332;2024-01-11T11:46:30;52.13;;;30.23;;
84820;SDS011;75463;50.988;11.332;2024-01-11T11:48:56;50.47;;;28.70;;
84820;SDS011;75463;50.988;11.332;2024-01-11T11:51:22;57.50;;;28.98;;
84820;SDS011;75463;50.988;11.332;2024-01-11T11:53:49;53.55;;;29.48;;
84820;SDS011;75463;50.988;11.332;2024-01-11T11:56:19;52.45;;;27.58;;
84820;SDS011;75463;50.988;11.332;2024-01-11T11:58:47;55.22;;;27.90;;
84820;SDS011;75463;50.988;11.332;2024-01-11T12:01:15;50.13;;;27.48;;
84820;SDS011;75463;50.988;11.332;2024-01-11T12:03:42;51.58;;;26.38;;
84820;SDS011;75463;50.988;11.332;2024-01-11T12:06:13;46.00;;;27.45;;
84820;SDS011;75463;50.988;11.332;2024-01-11T12:08:44;46.47;;;25.98;;
84820;SDS011;75463;50.988;11.332;2024-01-11T12:11:12;54.90;;;28.45;;
84820;SDS011;75463;50.988;11.332;2024-01-11T12:13:38;48.38;;;25.20;;
84820;SDS011;75463;50.988;11.332;2024-01-11T12:16:05;52.22;;;27.17;;
84820;SDS011;75463;50.988;11.332;2024-01-11T12:18:30;46.42;;;25.98;;
84820;SDS011;75463;50.988;11.332;2024-01-11T12:20:55;52.58;;;25.23;;
84820;SDS011;75463;50.988;11.332;2024-01-11T12:23:21;48.47;;;24.77;;
84820;SDS011;75463;50.988;11.332;2024-01-11T12:25:47;46.08;;;25.08;;
84820;SDS011;75463;50.988;11.332;2024-01-11T12:28:12;47.03;;;24.98;;
84820;SDS011;75463;50.988;11.332;2024-01-11T12:30:38;43.47;;;23.27;;
84820;SDS011;75463;50.988;11.332;2024-01-11T12:33:03;39.25;;;22.77;;
84820;SDS011;75463;50.988;11.332;2024-01-11T12:35:30;45.92;;;21.55;;
84820;SDS011;75463;50.988;11.332;2024-01-11T12:37:59;46.40;;;22.75;;
84820;SDS011;75463;50.988;11.332;2024-01-11T12:40:25;37.63;;;21.05;;
84820;SDS011;75463;50.988;11.332;2024-01-11T12:42:56;41.03;;;20.80;;
84820;SDS011;75463;50.988;11.332;2024-01-11T12:45:21;41.25;;;21.88;;
84820;SDS011;75463;50.988;11.332;2024-01-11T12:47:47;36.90;;;21.17;;
84820;SDS011;75463;50.988;11.332;2024-01-11T12:50:13;34.83;;;20.23;;
84820;SDS011;75463;50.988;11.332;2024-01-11T12:52:39;40.17;;;23.17;;
84820;SDS011;75463;50.988;11.332;2024-01-11T12:55:06;38.15;;;20.83;;
84820;SDS011;75463;50.988;11.332;2024-01-11T12:57:33;44.03;;;19.77;;
84820;SDS011;75463;50.988;11.332;2024-01-11T13:00:11;38.13;;;21.77;;
84820;SDS011;75463;50.988;11.332;2024-01-11T13:02:38;37.25;;;21.10;;
84820;SDS011;75463;50.988;11.332;2024-01-11T13:05:04;41.38;;;21.90;;
84820;SDS011;75463;50.988;11.332;2024-01-11T13:07:30;38.92;;;20.75;;
84820;SDS011;75463;50.988;11.332;2024-01-11T13:09:57;44.88;;;21.80;;
84820;SDS011;75463;50.988;11.332;2024-01-11T13:12:22;33.95;;;20.25;;
84820;SDS011;75463;50.988;11.332;2024-01-11T13:14:47;35.47;;;21.38;;
84820;SDS011;75463;50.988;11.332;2024-01-11T13:17:13;39.55;;;21.35;;
84820;SDS011;75463;50.988;11.332;2024-01-11T13:19:38;40.07;;;21.50;;
84820;SDS011;75463;50.988;11.332;2024-01-11T13:22:04;36.80;;;21.75;;
84820;SDS011;75463;50.988;11.332;2024-01-11T13:24:30;48.45;;;23.65;;
84820;SDS011;75463;50.988;11.332;2024-01-11T13:26:55;39.47;;;22.02;;
84820;SDS011;75463;50.988;11.332;2024-01-11T13:29:20;41.50;;;21.45;;
84820;SDS011;75463;50.988;11.332;2024-01-11T13:31:46;41.00;;;22.05;;
84820;SDS011;75463;50.988;11.332;2024-01-11T13:34:11;40.90;;;22.20;;
84820;SDS011;75463;50.988;11.332;2024-01-11T13:36:37;48.30;;;23.13;;
84820;SDS011;75463;50.988;11.332;2024-01-11T13:39:02;46.35;;;22.30;;
84820;SDS011;75463;50.988;11.332;2024-01-11T13:41:28;46.70;;;21.80;;
84820;SDS011;75463;50.988;11.332;2024-01-11T13:43:53;40.00;;;20.60;;
84820;SDS011;75463;50.988;11.332;2024-01-11T13:46:19;46.65;;;23.45;;
84820;SDS011;75463;50.988;11.332;2024-01-11T13:48:44;45.72;;;22.02;;
84820;SDS011;75463;50.988;11.332;2024-01-11T13:51:10;41.45;;;21.48;;
84820;SDS011;75463;50.988;11.332;2024-01-11T13:53:38;41.83;;;22.98;;
84820;SDS011;75463;50.988;11.332;2024-01-11T13:56:03;42.97;;;22.75;;
84820;SDS011;75463;50.988;11.332;2024-01-11T13:58:29;43.70;;;22.55;;
84820;SDS011;75463;50.988;11.332;2024-01-11T14:00:54;35.50;;;21.13;;
84820;SDS011;75463;50.988;11.332;2024-01-11T14:03:19;37.38;;;21.35;;
84820;SDS011;75463;50.988;11.332;2024-01-11T14:05:45;36.93;;;20.67;;
84820;SDS011;75463;50.988;11.332;2024-01-11T14:08:10;34.67;;;19.48;;